Skip to main content.
 TIME   TEMPERATURE   WINDSPEED   DIRECTION   HUMIDITY   BAROMETER   RAINFALL 
12:05 14.0°C (57.2°F) 13.0 kmh (8.1 mph) S 58% 1025.1hPa (30.27 inHg) 0.0mm (0.00 in.)
11:05 14.0°C (57.2 °F) 14.8 kmh (9.2 mph) SSE 58% 1026.1hPa (30.30 inHg) 0.0mm (0.00 in.)
10:05 13.0°C (55.4 °F) 14.8 kmh (9.2 mph) SE 62% 1025.1hPa (30.27 inHg) 0.0mm (0.00 in.)
9:05 12.0°C (53.6 °F) 5.6 kmh (3.5 mph) ESE 66% 1024.0hPa (30.24 inHg) 0.0mm (0.00 in.)
8:05 8.0°C (46.4 °F) 9.3 kmh (5.8 mph) SE 81% 1024.0hPa (30.24 inHg) 0.0mm (0.00 in.)
7:05 8.0°C (46.4 °F) 7.4 kmh (4.6 mph) SE 75% 1024.0hPa (30.24 inHg) 0.0mm (0.00 in.)
6:05 8.0°C (46.4 °F) 3.7 kmh (2.3 mph) ESE 75% 1024.0hPa (30.24 inHg) 0.0mm (0.00 in.)
5:05 7.0°C (44.6 °F) 3.7 kmh (2.3 mph) E 81% 1023.0hPa (30.21 inHg) 0.0mm (0.00 in.)
4:05 8.0°C (46.4 °F) 1.9 kmh (1.2 mph) E 75% 1023.0hPa (30.21 inHg) 0.0mm (0.00 in.)
3:05 9.0°C (48.2 °F) 3.7 kmh (2.3 mph) E 66% 1023.0hPa (30.21 inHg) 0.0mm (0.00 in.)
2:05 10.0°C (50.0 °F) 11.1 kmh (6.9 mph) ENE 61% 1023.0hPa (30.21 inHg) 0.0mm (0.00 in.)
1:05 10.0°C (50.0 °F) 11.1 kmh (6.9 mph) E 61% 1022.0hPa (30.18 inHg) 0.0mm (0.00 in.)
12:05 10.0°C (50.0 °F) 9.3 kmh (5.8 mph) E 61% 1022.0hPa (30.18 inHg) 0.0mm (0.00 in.)
11:05 11.0°C (51.8 °F) 9.3 kmh (5.8 mph) E 61% 1022.0hPa (30.18 inHg) 0.0mm (0.00 in.)
10:05 11.0°C (51.8 °F) 11.1 kmh (6.9 mph) E 66% 1021.0hPa (30.15 inHg) 0.0mm (0.00 in.)
9:05 11.0°C (51.8 °F) 9.3 kmh (5.8 mph) E 71% 1020.0hPa (30.12 inHg) 0.0mm (0.00 in.)
8:05 12.0°C (53.6 °F) 11.1 kmh (6.9 mph) E 71% 1020.0hPa (30.12 inHg) 0.0mm (0.00 in.)
7:05 11.0°C (51.8 °F) 11.1 kmh (6.9 mph) NNW 81% 1019.0hPa (30.09 inHg) 0.0mm (0.00 in.)
6:05 12.0°C (53.6 °F) 14.8 kmh (9.2 mph) NNW 76% 1017.9hPa (30.06 inHg) 0.0mm (0.00 in.)
5:05 14.0°C (57.2 °F) 16.7 kmh (10.4 mph) NNW 62% 1016.9hPa (30.03 inHg) 0.0mm (0.00 in.)
4:05 15.0°C (59.0 °F) 16.7 kmh (10.4 mph) N 54% 1016.9hPa (30.03 inHg) 0.0mm (0.00 in.)
3:05 15.0°C (59.0 °F) 27.8 kmh (17.3 mph) NNW 54% 1015.9hPa (30.00 inHg) 0.0mm (0.00 in.)
2:05 16.0°C (60.8 °F) 27.8 kmh (17.3 mph) N 47% 1014.9hPa (29.97 inHg) 0.0mm (0.00 in.)
1:05 16.0°C (60.8 °F) 29.6 kmh (18.4 mph) N 55% 1014.9hPa (29.97 inHg) 0.0mm (0.00 in.)